Augusta, Michigan
Current Conditions -  °F | °C
As of 7:53 AM on Monday 22 Dec 2014 (Local Time) from KBTL Reporting Station
Haze Haze  
Wind Chill: 22°   Ceiling: Unl
Heat Index: 27°   Visibility: 6mi
Dew Point: 22°   Wind: 5mph
Humidity: 81%   Direction: 120°ESE
Pressure: 30.04"   Gusts: NA
Location:  42.34°N, 85.35°W
Report Text: KBTL 221253Z 12004KT 6SM HZ CLR M03/M06 A3004 RMK AO2 SLP185 T10281056
Loading
Personal Weather Stations






























Interactive Weather Map New forecast layout! Learn more

10-Day Weather Forecast

Advertisements
Track Severe Weather on mobile